createdAt,value
2023-01-11T00:02:09.948Z,40.30
2023-01-11T00:04:57.594Z,38.40
2023-01-11T00:07:45.063Z,39.60
2023-01-11T00:10:33.891Z,37.70
2023-01-11T00:13:22.712Z,37.90
2023-01-11T00:16:10.282Z,37.30
2023-01-11T00:19:02.986Z,37.80
2023-01-11T00:21:50.248Z,40.90
2023-01-11T00:24:37.670Z,40.70
2023-01-11T00:27:41.280Z,42.90
2023-01-11T00:30:40.873Z,41.90
2023-01-11T00:33:27.968Z,41.80
2023-01-11T00:36:17.307Z,33.70
2023-01-11T00:39:05.164Z,32.30
2023-01-11T00:42:10.581Z,32.40
2023-01-11T00:45:17.798Z,32.10
2023-01-11T00:48:36.360Z,32.30
2023-01-11T00:51:23.985Z,30.70
2023-01-11T00:54:13.453Z,31.40
2023-01-11T00:57:14.870Z,30.50
2023-01-11T01:00:28.893Z,32.40
2023-01-11T01:03:18.724Z,32.20
2023-01-11T01:06:06.065Z,31.70
2023-01-11T01:08:59.493Z,31.80
2023-01-11T01:11:48.689Z,31.80
2023-01-11T01:14:38.717Z,31.50
2023-01-11T01:17:26.788Z,34.00
2023-01-11T01:20:19.546Z,33.50
2023-01-11T01:23:06.356Z,34.90
2023-01-11T01:25:52.928Z,34.90
2023-01-11T01:28:40.292Z,35.40
2023-01-11T01:31:28.811Z,37.70
2023-01-11T01:34:56.507Z,36.00
2023-01-11T01:38:20.383Z,36.60
2023-01-11T01:41:09.015Z,37.10
2023-01-11T01:44:28.536Z,36.90
2023-01-11T01:47:17.665Z,38.80
2023-01-11T01:50:14.362Z,37.00
2023-01-11T01:53:13.262Z,38.30
2023-01-11T01:56:07.740Z,37.70
2023-01-11T01:59:05.135Z,36.70
2023-01-11T02:02:04.173Z,37.40
2023-01-11T02:04:56.788Z,38.20
2023-01-11T02:07:45.369Z,38.00
2023-01-11T02:10:36.094Z,38.40
2023-01-11T02:13:23.591Z,39.20
2023-01-11T02:16:16.665Z,40.40
2023-01-11T02:19:13.575Z,42.40
2023-01-11T02:22:34.789Z,41.30
2023-01-11T02:25:54.326Z,42.60
2023-01-11T02:29:22.131Z,42.60
2023-01-11T02:32:27.750Z,43.40
2023-01-11T02:35:43.704Z,45.50
2023-01-11T02:38:40.514Z,45.20
2023-01-11T02:41:58.221Z,46.00
2023-01-11T02:45:48.860Z,45.20
2023-01-11T02:49:10.495Z,45.80
2023-01-11T02:52:34.796Z,47.50
2023-01-11T02:55:34.098Z,47.50
2023-01-11T02:58:27.037Z,46.00
2023-01-11T03:01:17.063Z,46.10
2023-01-11T03:04:04.326Z,46.70
2023-01-11T03:06:59.494Z,45.70
2023-01-11T03:09:58.635Z,45.30
2023-01-11T03:13:33.077Z,44.60
2023-01-11T03:16:52.012Z,45.90
2023-01-11T03:19:54.117Z,48.00
2023-01-11T03:23:11.552Z,44.50
2023-01-11T03:27:06.688Z,46.40
2023-01-11T03:30:36.324Z,45.30
2023-01-11T03:33:30.344Z,44.80
2023-01-11T03:36:47.406Z,45.60
2023-01-11T03:39:52.069Z,44.90
2023-01-11T03:43:02.962Z,41.80
2023-01-11T03:46:18.225Z,45.40
2023-01-11T03:49:29.839Z,44.70
2023-01-11T03:53:18.525Z,43.10
2023-01-11T03:56:31.237Z,43.10
2023-01-11T03:59:52.589Z,44.90
2023-01-11T04:03:15.629Z,49.00
2023-01-11T04:06:26.217Z,52.90
2023-01-11T04:09:38.626Z,53.50
2023-01-11T04:13:06.659Z,51.60
2023-01-11T04:16:40.962Z,53.30
2023-01-11T04:20:14.679Z,52.50
2023-01-11T04:23:43.687Z,44.60
2023-01-11T04:26:56.847Z,48.70
2023-01-11T04:31:14.956Z,45.60
2023-01-11T04:34:47.892Z,49.50
2023-01-11T04:38:06.757Z,47.50
2023-01-11T04:45:41.609Z,50.90
2023-01-11T04:50:08.698Z,44.10
2023-01-11T04:54:10.213Z,41.50
2023-01-11T04:58:04.328Z,42.90
2023-01-11T05:05:00.905Z,45.30
2023-01-11T05:08:13.743Z,30.50
2023-01-11T05:11:06.068Z,38.80
2023-01-11T05:17:50.248Z,39.60
2023-01-11T05:21:39.799Z,33.30
2023-01-11T05:25:26.739Z,37.90
2023-01-11T05:31:04.924Z,37.50
2023-01-11T05:34:12.449Z,40.00
2023-01-11T05:36:59.436Z,39.40
2023-01-11T05:40:20.168Z,38.10
2023-01-11T05:43:30.003Z,34.50
2023-01-11T05:46:51.159Z,34.40
2023-01-11T05:49:59.538Z,36.60
2023-01-11T05:53:18.730Z,37.50
2023-01-11T05:56:40.342Z,38.50
2023-01-11T05:59:49.561Z,34.00
2023-01-11T06:03:32.513Z,37.70
2023-01-11T06:09:52.096Z,36.40
2023-01-11T06:13:27.483Z,34.00
2023-01-11T06:16:39.148Z,33.90
2023-01-11T06:19:30.088Z,30.20
2023-01-11T06:23:19.778Z,31.90
2023-01-11T06:26:37.108Z,33.40
2023-01-11T06:30:08.678Z,29.20
2023-01-11T06:33:08.503Z,30.70
2023-01-11T06:35:56.563Z,32.70
2023-01-11T06:38:48.304Z,29.50
2023-01-11T06:41:44.702Z,28.10
2023-01-11T06:58:05.768Z,21.00
2023-01-11T07:10:12.241Z,24.70
2023-01-11T07:13:27.440Z,24.20
2023-01-11T07:17:05.598Z,28.90
2023-01-11T07:33:07.238Z,22.90
2023-01-11T07:35:56.198Z,22.50
2023-01-11T07:43:10.409Z,24.90
2023-01-11T07:47:21.828Z,24.50
2023-01-11T07:51:08.764Z,21.80
2023-01-11T07:55:04.286Z,23.60
2023-01-11T07:58:39.842Z,24.90
2023-01-11T08:02:05.306Z,24.10
2023-01-11T08:05:35.120Z,23.20
2023-01-11T08:09:10.216Z,20.80
2023-01-11T08:12:26.093Z,22.20
2023-01-11T08:16:16.671Z,20.50
2023-01-11T08:19:21.483Z,22.90
2023-01-11T08:22:55.891Z,24.30
2023-01-11T08:26:33.729Z,23.00
2023-01-11T08:30:05.617Z,22.10
2023-01-11T08:33:58.721Z,20.00
2023-01-11T08:37:17.772Z,20.00
2023-01-11T08:40:51.717Z,19.20
2023-01-11T08:44:33.783Z,19.70
2023-01-11T08:48:07.902Z,20.30
2023-01-11T08:51:12.656Z,21.40
2023-01-11T08:55:02.240Z,20.70
2023-01-11T08:58:26.676Z,19.50
2023-01-11T09:01:59.425Z,21.00
2023-01-11T09:05:28.046Z,22.30
2023-01-11T09:09:08.700Z,19.20
2023-01-11T09:16:07.617Z,20.40
2023-01-11T09:27:42.445Z,21.40
2023-01-11T09:30:57.766Z,21.20
2023-01-11T09:34:35.364Z,20.20
2023-01-11T09:38:10.269Z,20.40
2023-01-11T09:42:10.948Z,20.90
2023-01-11T09:57:11.229Z,19.40
2023-01-11T10:00:54.565Z,22.00
2023-01-11T10:04:36.918Z,22.00
2023-01-11T10:42:05.401Z,15.90
2023-01-11T10:46:29.785Z,14.70
2023-01-11T10:50:41.961Z,17.90
2023-01-11T10:54:18.975Z,18.90
2023-01-11T10:57:28.969Z,18.70
2023-01-11T11:14:01.613Z,15.10
2023-01-11T11:17:28.505Z,18.20
2023-01-11T11:27:26.291Z,19.70
2023-01-11T11:31:15.083Z,18.70
2023-01-11T11:34:59.944Z,19.30
2023-01-11T11:38:34.148Z,17.50
2023-01-11T11:46:19.524Z,20.20
2023-01-11T11:49:47.330Z,19.80
2023-01-11T11:53:51.891Z,20.00
2023-01-11T11:57:11.397Z,18.90
2023-01-11T12:00:57.781Z,19.10
2023-01-11T12:08:48.688Z,19.60
2023-01-11T12:11:49.129Z,18.90
2023-01-11T12:20:03.856Z,18.40
2023-01-11T12:23:51.763Z,17.30
2023-01-11T12:27:42.460Z,18.90
2023-01-11T12:31:25.821Z,19.10
2023-01-11T12:35:01.962Z,17.80
2023-01-11T12:38:43.652Z,16.80
2023-01-11T12:42:21.384Z,16.60
2023-01-11T12:45:53.458Z,16.70
2023-01-11T12:49:36.906Z,17.70
2023-01-11T12:53:45.613Z,16.50
2023-01-11T12:57:06.806Z,16.70
2023-01-11T13:00:36.080Z,16.70
2023-01-11T13:03:55.662Z,17.70
2023-01-11T13:11:38.013Z,17.50
2023-01-11T13:15:03.463Z,15.30
2023-01-11T13:18:48.233Z,16.90
2023-01-11T13:25:34.286Z,15.70
2023-01-11T13:28:54.932Z,15.50
2023-01-11T13:31:46.466Z,15.00
2023-01-11T13:34:51.939Z,15.90
2023-01-11T13:37:49.167Z,15.40
2023-01-11T13:40:42.722Z,16.40
2023-01-11T13:48:53.432Z,15.00
2023-01-11T13:52:26.689Z,12.30
2023-01-11T13:55:50.474Z,14.30
2023-01-11T14:10:24.662Z,16.70
2023-01-11T14:14:04.765Z,15.40
2023-01-11T14:18:00.911Z,15.80
2023-01-11T14:21:31.754Z,16.30
2023-01-11T14:25:00.376Z,16.20
2023-01-11T14:29:13.347Z,17.30
2023-01-11T14:32:08.302Z,16.50
2023-01-11T14:35:38.048Z,17.80
2023-01-11T14:38:28.057Z,17.60
2023-01-11T14:41:46.360Z,18.30
2023-01-11T14:48:16.209Z,18.20
2023-01-11T14:51:09.465Z,18.40
2023-01-11T14:54:07.075Z,19.40
2023-01-11T14:57:20.164Z,19.40
2023-01-11T15:00:11.032Z,22.00
2023-01-11T15:03:09.564Z,19.30
2023-01-11T15:06:17.230Z,19.60
2023-01-11T15:09:45.501Z,19.20
2023-01-11T15:12:35.954Z,20.40
2023-01-11T15:15:47.772Z,20.80
2023-01-11T15:18:45.799Z,21.10
2023-01-11T15:21:46.649Z,21.50
2023-01-11T15:29:06.151Z,21.30
2023-01-11T15:35:03.646Z,18.10
2023-01-11T15:38:37.716Z,20.10
2023-01-11T15:42:07.485Z,20.90
2023-01-11T15:45:15.455Z,20.30
2023-01-11T15:49:26.791Z,19.30
2023-01-11T16:00:04.300Z,18.70
2023-01-11T16:03:27.432Z,17.00
2023-01-11T16:07:14.676Z,18.90
2023-01-11T16:11:03.775Z,16.90
2023-01-11T16:14:48.104Z,17.80
2023-01-11T16:18:40.471Z,17.30
2023-01-11T16:23:14.889Z,15.20
2023-01-11T16:26:26.203Z,19.40
2023-01-11T16:34:07.825Z,19.10
2023-01-11T16:37:34.403Z,19.40
2023-01-11T16:40:44.794Z,19.40
2023-01-11T16:44:24.923Z,20.60
2023-01-11T16:47:32.673Z,20.70
2023-01-11T16:51:19.873Z,20.00
2023-01-11T16:54:52.394Z,20.50
2023-01-11T16:58:44.908Z,20.50
2023-01-11T17:02:26.238Z,20.00
2023-01-11T17:05:37.579Z,20.70
2023-01-11T17:08:52.114Z,19.30
2023-01-11T17:11:50.656Z,19.20
2023-01-11T17:15:12.962Z,19.30
2023-01-11T17:18:37.403Z,19.20
2023-01-11T17:22:13.412Z,18.80
2023-01-11T17:25:09.452Z,19.30
2023-01-11T17:28:57.158Z,20.20
2023-01-11T17:32:06.342Z,20.40
2023-01-11T17:34:53.250Z,19.80
2023-01-11T17:38:20.833Z,20.60
2023-01-11T17:41:49.550Z,19.80
2023-01-11T17:44:54.047Z,20.10
2023-01-11T17:47:51.946Z,20.90
2023-01-11T17:51:42.464Z,21.70
2023-01-11T17:54:46.245Z,20.90
2023-01-11T17:57:40.064Z,22.30
2023-01-11T18:04:35.665Z,22.10
2023-01-11T18:07:21.442Z,21.40
2023-01-11T18:10:41.338Z,22.40
2023-01-11T18:13:52.631Z,22.70
2023-01-11T18:17:43.687Z,23.10
2023-01-11T18:21:23.217Z,23.20
2023-01-11T18:26:01.017Z,23.30
2023-01-11T18:29:31.067Z,24.40
2023-01-11T18:32:55.553Z,23.10
2023-01-11T18:36:15.123Z,24.40
2023-01-11T18:39:56.774Z,23.20
2023-01-11T18:43:49.689Z,22.90
2023-01-11T18:46:35.228Z,23.30
2023-01-11T18:49:20.764Z,23.60
2023-01-11T18:52:06.147Z,24.70
2023-01-11T18:54:51.483Z,25.10
2023-01-11T18:57:38.043Z,25.90
2023-01-11T19:00:23.465Z,25.40
2023-01-11T19:03:09.912Z,41.00
2023-01-11T19:05:54.880Z,24.30
2023-01-11T19:08:40.501Z,26.40
2023-01-11T19:11:28.036Z,23.00
2023-01-11T19:14:12.955Z,22.70
2023-01-11T19:16:57.886Z,20.60
2023-01-11T19:19:42.884Z,21.40
2023-01-11T19:22:27.822Z,20.80
2023-01-11T19:25:12.847Z,18.80
2023-01-11T19:27:57.887Z,20.50
2023-01-11T19:30:43.986Z,18.70
2023-01-11T19:33:29.003Z,19.10
2023-01-11T19:36:13.875Z,19.90
2023-01-11T19:38:58.947Z,19.20
2023-01-11T19:42:04.399Z,20.60
2023-01-11T19:44:51.046Z,20.70
2023-01-11T19:47:36.389Z,20.80
2023-01-11T19:50:21.957Z,20.80
2023-01-11T19:53:07.173Z,21.00
2023-01-11T19:55:52.734Z,22.10
2023-01-11T19:58:38.885Z,21.10
2023-01-11T20:01:24.137Z,21.90
2023-01-11T20:04:12.151Z,21.60
2023-01-11T20:06:57.131Z,21.80
2023-01-11T20:09:42.651Z,22.70
2023-01-11T20:12:27.516Z,22.70
2023-01-11T20:15:12.628Z,23.10
2023-01-11T20:17:57.473Z,23.20
2023-01-11T20:20:42.554Z,23.50
2023-01-11T20:23:30.408Z,24.10
2023-01-11T20:26:16.024Z,23.50
2023-01-11T20:29:01.655Z,23.60
2023-01-11T20:31:48.694Z,23.20
2023-01-11T20:34:36.047Z,24.90
2023-01-11T20:37:21.260Z,23.80
2023-01-11T20:40:08.316Z,24.60
2023-01-11T20:42:55.088Z,24.50
2023-01-11T20:45:40.341Z,25.20
2023-01-11T20:48:25.455Z,25.20
2023-01-11T20:51:10.486Z,26.00
2023-01-11T20:53:55.696Z,25.50
2023-01-11T20:56:41.407Z,25.80
2023-01-11T20:59:26.268Z,26.40
2023-01-11T21:02:12.904Z,26.60
2023-01-11T21:04:57.676Z,26.50
2023-01-11T21:07:42.516Z,27.30
2023-01-11T21:10:27.375Z,27.30
2023-01-11T21:13:12.429Z,28.80
2023-01-11T21:16:00.096Z,28.70
2023-01-11T21:18:44.929Z,28.60
2023-01-11T21:21:31.874Z,28.90
2023-01-11T21:24:16.772Z,30.30
2023-01-11T21:27:01.707Z,28.30
2023-01-11T21:29:46.820Z,27.80
2023-01-11T21:35:40.523Z,22.80
2023-01-11T21:38:26.675Z,28.20
2023-01-11T21:41:16.529Z,27.50
2023-01-11T21:44:03.102Z,28.10
2023-01-11T21:46:53.702Z,27.30
2023-01-11T21:49:40.963Z,27.60
2023-01-11T21:52:27.802Z,27.50
2023-01-11T21:55:14.327Z,28.50
2023-01-11T21:58:01.100Z,26.60
2023-01-11T22:00:48.731Z,27.10
2023-01-11T22:03:35.470Z,26.00
2023-01-11T22:06:21.703Z,26.40
2023-01-11T22:09:09.715Z,26.50
2023-01-11T22:11:56.159Z,25.70
2023-01-11T22:14:43.637Z,25.40
2023-01-11T22:17:30.246Z,25.50
2023-01-11T22:20:17.650Z,26.30
2023-01-11T22:23:04.079Z,26.70
2023-01-11T22:25:50.457Z,26.20
2023-01-11T22:28:55.817Z,25.80
2023-01-11T22:31:47.356Z,26.10
2023-01-11T22:34:34.313Z,26.30
2023-01-11T22:37:20.709Z,26.70
2023-01-11T22:40:08.345Z,26.30
2023-01-11T22:42:55.627Z,26.80
2023-01-11T22:45:42.510Z,25.20
2023-01-11T22:48:28.955Z,25.40
2023-01-11T22:51:17.627Z,24.80
2023-01-11T22:54:04.679Z,25.10
2023-01-11T22:56:51.151Z,24.50
2023-01-11T22:59:38.819Z,24.60
2023-01-11T23:02:25.495Z,24.90
2023-01-11T23:05:11.994Z,25.60
2023-01-11T23:07:58.606Z,25.40
2023-01-11T23:10:45.126Z,24.80
2023-01-11T23:13:50.440Z,25.10
2023-01-11T23:16:37.891Z,25.40
2023-01-11T23:19:24.252Z,25.10
2023-01-11T23:22:10.969Z,25.80
2023-01-11T23:24:57.701Z,24.90
2023-01-11T23:27:44.343Z,26.20
2023-01-11T23:30:31.041Z,25.80
2023-01-11T23:33:17.685Z,27.40
2023-01-11T23:36:04.583Z,27.50
2023-01-11T23:38:51.191Z,28.80
2023-01-11T23:41:56.631Z,28.00
2023-01-11T23:44:43.294Z,28.80
2023-01-11T23:47:31.645Z,28.60
2023-01-11T23:50:18.411Z,30.10
2023-01-11T23:53:04.961Z,29.10
2023-01-11T23:55:55.234Z,30.10
2023-01-11T23:58:41.702Z,30.50
